San Marcos, TX

12:56 PM CDT on September 01, 2015 (GMT -0500)
Spring Lake Hills | | Change Station
CLOSE
Current Station
Personal Weather Station
Location: San Marcos, TX
Elevation: 768 ft
Nearby Weather Stations

Elev 768 ft 29.90 °N, 97.94 °W | Updated 16 seconds ago

Mostly Cloudy
Mostly Cloudy
86.9 °F
Feels Like 90 °F
N
0.0
Wind Variable Wind from ESE
Gusts 0.0 mph

Today
High -- | Low -- °F
--% Chance of Precip.
Yesterday
High -- | Low -- °F
Precip. -- in
7:08 AM 7:54 PM
Waning Gibbous, 87% visible
Pressure 30.04 in
Visibility 10.0 miles
Clouds Few 3500 ft
Heat Index 90 °F
Dew Point 68 °F
Humidity 53%
Rainfall 0.04 in
Snow Depth Not available.
UV 10 out of 12
Pollen 6.60 out of 12
Air Quality Not available.
Flu Activity Not available.
METAR KHYI 011745Z 16009G14KT 10SM FEW035 31/22 A3004
Pressure 30.04 in
Visibility 10.0 miles
Clouds Few 3500 ft
Heat Index 90 °F
Dew Point 68 °F
Humidity 53%
Rainfall 0.04 in
Snow Depth Not available.
UV 10 out of 12
Pollen 6.60 out of 12
Air Quality Not available.
Flu Activity Not available.
METAR KHYI 011745Z 16009G14KT 10SM FEW035 31/22 A3004
Nowcast | as of 11:27 am CDT on September 1, 2015

Light to moderate to isolated heavy showers and thunderstorms will continue to affect parts of the eastern half of south central Texas for the next several hours. The heaviest activity according to latest radar trends is over central Fayette County. These showers and storms will move to the north and affect parts of Bastrop and Lee counties for the next hour or so. Rainfall amounts will generally be around few hundredths to one half inch with very isolated spots getting from 1 to 2 inches in couple of hours.

×

10-Day Weather Forecast

×

Almanac

Astronomy

Sep. 01, 2015 Rise Set
Actual Time
Civil Twilight
Nautical Twilight
Astronomical Twilight
Moon
Length of Visible Light
Length of Day
Tomorrow will be .
, % of the Moon is Illuminated

Today's Extremes

State Highs State Lows

Community

WunderPhotos

Upload Photos

1,851,569 photos uploaded!

WunderBlogs® & News

Nearby

Air Quality

  Air Quality AQ Index Pollutant
Not available.

Snow Depth

Station Depth Elevation

Earthquake Activity

City Distance Mag. Time & Date
Minimum magnitude displayed is 2.5.

Coastal Water Temperatures

Place Temperature

Stations

Nearby Weather Stations

Station Location Temp. Windchill Dew Point Humidity Wind Precip. Elev Updated Type